Strona główna
METAR-TAF:

METAR-TAF

Lotnisko :

Port lotniczy Hawarden

Hawarden, Walia

Szerokość geograficzna: 53-10N, Długość geograficzna: 002-59W, wysokość: 10 m

Aktualna obserwacja pogody

Raport powstał 1 godzina i 18 minut temu, godzina 18:50 UTC
Wiatr 1 kt z kierunków zmiennych
Temperatura 3°C
Wilgotność 93%
Ciśnienie 1048 hPa
Widzialność: 8000 m

METAR: EGNR 191850Z VRB01KT 8000 NSC 03/02 Q1048

czas: 20:08 (20:08 UTC)

Prognoza

Raport powstał 6 godziny i 9 minut temu, godzina 13:59 UTC
Prognoza ważna od 19 godzina 15 UTC do 19 godzina 19 UTC
Wiatr 3 kt z kierunków zmiennych
Widzialność 10 km lub więcej
Mało chmury na wysokości 3000 ft
Prawdopodobieństwo 30%
od 19 godzina 15 UTC do 19 godzina 19 UTC
Widzialność: 7000 m

TAF: EGNR 191359Z 1915/1919 VRB03KT 9999 FEW030 PROB30 1915/1919 7000

Obserwacja i prognoza pogody dla ponad 4000 lotnisk (raport METAR i TAF).

Dostępne stacje oznaczono żółtymi i czerwonymi punktami na mapie.

Najedź kursorem aby zobaczyć nazwę stacji.

Kliknij aby zobaczyć obserwacje i prognozy pogody.

Aby zmienić mapę: kliknij na zielony przycisk z czarnym krzyżykiem, aby powiększyć; na zielony przycisk z myślnikiem, aby pomniejszyć; na zielone strzałki, aby przejść do map sąsiednich.


METAR-TAF: